sensor_id;sensor_type;location;lat;lon;timestamp;P1;durP1;ratioP1;P2;durP2;ratioP2
15271;SDS011;7737;51.578;7.268;2024-03-08T00:00:53;21.47;;;19.17;;
15271;SDS011;7737;51.578;7.268;2024-03-08T00:03:20;23.27;;;20.00;;
15271;SDS011;7737;51.578;7.268;2024-03-08T00:05:48;21.47;;;18.77;;
15271;SDS011;7737;51.578;7.268;2024-03-08T00:08:15;21.03;;;18.97;;
15271;SDS011;7737;51.578;7.268;2024-03-08T00:10:41;22.47;;;20.07;;
15271;SDS011;7737;51.578;7.268;2024-03-08T00:13:08;21.80;;;19.50;;
15271;SDS011;7737;51.578;7.268;2024-03-08T00:15:34;24.23;;;20.10;;
15271;SDS011;7737;51.578;7.268;2024-03-08T00:18:01;21.90;;;19.60;;
15271;SDS011;7737;51.578;7.268;2024-03-08T00:20:27;22.43;;;19.97;;
15271;SDS011;7737;51.578;7.268;2024-03-08T00:22:55;21.63;;;19.23;;
15271;SDS011;7737;51.578;7.268;2024-03-08T00:25:22;23.00;;;19.67;;
15271;SDS011;7737;51.578;7.268;2024-03-08T00:27:49;21.87;;;19.57;;
15271;SDS011;7737;51.578;7.268;2024-03-08T00:30:16;22.30;;;19.90;;
15271;SDS011;7737;51.578;7.268;2024-03-08T00:32:42;22.40;;;20.03;;
15271;SDS011;7737;51.578;7.268;2024-03-08T00:35:09;23.07;;;20.53;;
15271;SDS011;7737;51.578;7.268;2024-03-08T00:37:37;23.70;;;19.70;;
15271;SDS011;7737;51.578;7.268;2024-03-08T00:40:05;23.07;;;20.67;;
15271;SDS011;7737;51.578;7.268;2024-03-08T00:42:34;23.00;;;20.23;;
15271;SDS011;7737;51.578;7.268;2024-03-08T00:45:01;21.50;;;19.30;;
15271;SDS011;7737;51.578;7.268;2024-03-08T00:47:28;22.00;;;19.60;;
15271;SDS011;7737;51.578;7.268;2024-03-08T00:49:54;22.67;;;20.23;;
15271;SDS011;7737;51.578;7.268;2024-03-08T00:52:21;25.73;;;20.10;;
15271;SDS011;7737;51.578;7.268;2024-03-08T00:54:49;22.47;;;19.80;;
15271;SDS011;7737;51.578;7.268;2024-03-08T00:57:17;22.27;;;19.87;;
15271;SDS011;7737;51.578;7.268;2024-03-08T00:59:44;23.90;;;20.03;;
15271;SDS011;7737;51.578;7.268;2024-03-08T01:02:10;22.93;;;19.47;;
15271;SDS011;7737;51.578;7.268;2024-03-08T01:04:37;22.20;;;19.60;;
15271;SDS011;7737;51.578;7.268;2024-03-08T01:07:03;23.77;;;20.53;;
15271;SDS011;7737;51.578;7.268;2024-03-08T01:09:30;23.10;;;20.57;;
15271;SDS011;7737;51.578;7.268;2024-03-08T01:11:56;24.90;;;20.50;;
15271;SDS011;7737;51.578;7.268;2024-03-08T01:14:24;24.23;;;20.87;;
15271;SDS011;7737;51.578;7.268;2024-03-08T01:16:51;24.13;;;21.13;;
15271;SDS011;7737;51.578;7.268;2024-03-08T01:19:18;23.20;;;20.63;;
15271;SDS011;7737;51.578;7.268;2024-03-08T01:21:44;23.87;;;20.90;;
15271;SDS011;7737;51.578;7.268;2024-03-08T01:24:11;25.03;;;21.17;;
15271;SDS011;7737;51.578;7.268;2024-03-08T01:26:38;24.03;;;21.43;;
15271;SDS011;7737;51.578;7.268;2024-03-08T01:29:04;25.10;;;22.10;;
15271;SDS011;7737;51.578;7.268;2024-03-08T01:31:32;23.77;;;20.90;;
15271;SDS011;7737;51.578;7.268;2024-03-08T01:33:59;26.07;;;21.30;;
15271;SDS011;7737;51.578;7.268;2024-03-08T01:36:25;24.17;;;21.40;;
15271;SDS011;7737;51.578;7.268;2024-03-08T01:38:52;24.47;;;21.37;;
15271;SDS011;7737;51.578;7.268;2024-03-08T01:41:18;23.00;;;20.40;;
15271;SDS011;7737;51.578;7.268;2024-03-08T01:43:45;25.57;;;21.77;;
15271;SDS011;7737;51.578;7.268;2024-03-08T01:46:12;26.30;;;21.93;;
15271;SDS011;7737;51.578;7.268;2024-03-08T01:48:44;27.07;;;20.60;;
15271;SDS011;7737;51.578;7.268;2024-03-08T01:51:11;25.87;;;21.97;;
15271;SDS011;7737;51.578;7.268;2024-03-08T01:53:40;24.13;;;20.60;;
15271;SDS011;7737;51.578;7.268;2024-03-08T01:56:10;24.93;;;21.83;;
15271;SDS011;7737;51.578;7.268;2024-03-08T01:58:38;24.73;;;21.17;;
15271;SDS011;7737;51.578;7.268;2024-03-08T02:01:07;24.80;;;22.00;;
15271;SDS011;7737;51.578;7.268;2024-03-08T02:03:34;23.53;;;20.90;;
15271;SDS011;7737;51.578;7.268;2024-03-08T02:06:02;24.17;;;21.53;;
15271;SDS011;7737;51.578;7.268;2024-03-08T02:08:30;28.43;;;21.63;;
15271;SDS011;7737;51.578;7.268;2024-03-08T02:10:56;26.90;;;22.33;;
15271;SDS011;7737;51.578;7.268;2024-03-08T02:13:23;26.23;;;22.20;;
15271;SDS011;7737;51.578;7.268;2024-03-08T02:15:50;25.80;;;21.50;;
15271;SDS011;7737;51.578;7.268;2024-03-08T02:18:16;25.77;;;21.70;;
15271;SDS011;7737;51.578;7.268;2024-03-08T02:20:44;24.17;;;20.67;;
15271;SDS011;7737;51.578;7.268;2024-03-08T02:23:12;24.57;;;21.97;;
15271;SDS011;7737;51.578;7.268;2024-03-08T02:25:39;27.97;;;22.43;;
15271;SDS011;7737;51.578;7.268;2024-03-08T02:28:06;26.27;;;22.67;;
15271;SDS011;7737;51.578;7.268;2024-03-08T02:30:35;27.13;;;21.83;;
15271;SDS011;7737;51.578;7.268;2024-03-08T02:33:01;28.60;;;21.87;;
15271;SDS011;7737;51.578;7.268;2024-03-08T02:35:29;25.57;;;21.73;;
15271;SDS011;7737;51.578;7.268;2024-03-08T02:37:56;24.10;;;21.50;;
15271;SDS011;7737;51.578;7.268;2024-03-08T02:40:23;24.27;;;21.47;;
15271;SDS011;7737;51.578;7.268;2024-03-08T02:42:50;26.37;;;21.87;;
15271;SDS011;7737;51.578;7.268;2024-03-08T02:45:16;24.07;;;21.20;;
15271;SDS011;7737;51.578;7.268;2024-03-08T02:47:43;24.60;;;21.93;;
15271;SDS011;7737;51.578;7.268;2024-03-08T02:50:10;25.30;;;21.77;;
15271;SDS011;7737;51.578;7.268;2024-03-08T02:52:41;25.10;;;21.17;;
15271;SDS011;7737;51.578;7.268;2024-03-08T02:55:09;27.70;;;22.20;;
15271;SDS011;7737;51.578;7.268;2024-03-08T02:57:40;25.80;;;21.30;;
15271;SDS011;7737;51.578;7.268;2024-03-08T03:00:07;25.03;;;21.43;;
15271;SDS011;7737;51.578;7.268;2024-03-08T03:02:35;27.17;;;21.90;;
15271;SDS011;7737;51.578;7.268;2024-03-08T03:05:02;25.97;;;22.27;;
15271;SDS011;7737;51.578;7.268;2024-03-08T03:07:31;28.13;;;21.57;;
15271;SDS011;7737;51.578;7.268;2024-03-08T03:09:58;29.50;;;22.90;;
15271;SDS011;7737;51.578;7.268;2024-03-08T03:12:26;26.47;;;22.53;;
15271;SDS011;7737;51.578;7.268;2024-03-08T03:14:53;26.63;;;22.37;;
15271;SDS011;7737;51.578;7.268;2024-03-08T03:17:21;28.50;;;22.67;;
15271;SDS011;7737;51.578;7.268;2024-03-08T03:19:48;27.27;;;22.67;;
15271;SDS011;7737;51.578;7.268;2024-03-08T03:22:14;25.57;;;22.23;;
15271;SDS011;7737;51.578;7.268;2024-03-08T03:24:41;28.93;;;23.03;;
15271;SDS011;7737;51.578;7.268;2024-03-08T03:27:07;27.60;;;23.37;;
15271;SDS011;7737;51.578;7.268;2024-03-08T03:29:38;26.20;;;22.87;;
15271;SDS011;7737;51.578;7.268;2024-03-08T03:32:04;25.67;;;22.87;;
15271;SDS011;7737;51.578;7.268;2024-03-08T03:34:32;25.60;;;22.00;;
15271;SDS011;7737;51.578;7.268;2024-03-08T03:37:01;27.23;;;22.47;;
15271;SDS011;7737;51.578;7.268;2024-03-08T03:39:27;29.17;;;23.50;;
15271;SDS011;7737;51.578;7.268;2024-03-08T03:41:56;26.77;;;22.50;;
15271;SDS011;7737;51.578;7.268;2024-03-08T03:44:23;26.67;;;21.90;;
15271;SDS011;7737;51.578;7.268;2024-03-08T03:46:51;27.33;;;22.97;;
15271;SDS011;7737;51.578;7.268;2024-03-08T03:49:17;26.47;;;23.50;;
15271;SDS011;7737;51.578;7.268;2024-03-08T03:51:44;28.87;;;23.40;;
15271;SDS011;7737;51.578;7.268;2024-03-08T03:54:10;29.83;;;23.33;;
15271;SDS011;7737;51.578;7.268;2024-03-08T03:56:37;27.80;;;23.07;;
15271;SDS011;7737;51.578;7.268;2024-03-08T03:59:04;28.10;;;23.83;;
15271;SDS011;7737;51.578;7.268;2024-03-08T04:01:31;29.20;;;23.70;;
15271;SDS011;7737;51.578;7.268;2024-03-08T04:03:59;29.93;;;22.30;;
15271;SDS011;7737;51.578;7.268;2024-03-08T04:06:26;26.10;;;22.77;;
15271;SDS011;7737;51.578;7.268;2024-03-08T04:08:53;27.17;;;22.50;;
15271;SDS011;7737;51.578;7.268;2024-03-08T04:11:20;27.57;;;23.33;;
15271;SDS011;7737;51.578;7.268;2024-03-08T04:13:46;28.10;;;23.23;;
15271;SDS011;7737;51.578;7.268;2024-03-08T04:16:13;25.80;;;21.43;;
15271;SDS011;7737;51.578;7.268;2024-03-08T04:18:40;28.50;;;23.33;;
15271;SDS011;7737;51.578;7.268;2024-03-08T04:21:08;31.00;;;23.63;;
15271;SDS011;7737;51.578;7.268;2024-03-08T04:23:34;28.17;;;23.23;;
15271;SDS011;7737;51.578;7.268;2024-03-08T04:26:01;29.67;;;22.90;;
15271;SDS011;7737;51.578;7.268;2024-03-08T04:28:28;26.97;;;22.57;;
15271;SDS011;7737;51.578;7.268;2024-03-08T04:30:55;27.90;;;22.23;;
15271;SDS011;7737;51.578;7.268;2024-03-08T04:33:21;27.80;;;22.57;;
15271;SDS011;7737;51.578;7.268;2024-03-08T04:35:48;28.13;;;22.93;;
15271;SDS011;7737;51.578;7.268;2024-03-08T04:38:16;28.83;;;22.97;;
15271;SDS011;7737;51.578;7.268;2024-03-08T04:40:43;29.83;;;22.57;;
15271;SDS011;7737;51.578;7.268;2024-03-08T04:43:09;38.10;;;24.07;;
15271;SDS011;7737;51.578;7.268;2024-03-08T04:45:36;30.27;;;23.57;;
15271;SDS011;7737;51.578;7.268;2024-03-08T04:48:03;29.20;;;23.80;;
15271;SDS011;7737;51.578;7.268;2024-03-08T04:50:29;40.73;;;24.13;;
15271;SDS011;7737;51.578;7.268;2024-03-08T04:52:56;32.00;;;23.53;;
15271;SDS011;7737;51.578;7.268;2024-03-08T04:55:24;30.13;;;22.83;;
15271;SDS011;7737;51.578;7.268;2024-03-08T04:57:50;29.23;;;22.43;;
15271;SDS011;7737;51.578;7.268;2024-03-08T05:00:18;30.57;;;22.73;;
15271;SDS011;7737;51.578;7.268;2024-03-08T05:02:45;27.67;;;23.00;;
15271;SDS011;7737;51.578;7.268;2024-03-08T05:05:12;29.73;;;23.23;;
15271;SDS011;7737;51.578;7.268;2024-03-08T05:07:40;30.10;;;23.10;;
15271;SDS011;7737;51.578;7.268;2024-03-08T05:10:08;28.83;;;22.67;;
15271;SDS011;7737;51.578;7.268;2024-03-08T05:12:36;29.20;;;22.33;;
15271;SDS011;7737;51.578;7.268;2024-03-08T05:15:04;29.13;;;23.37;;
15271;SDS011;7737;51.578;7.268;2024-03-08T05:17:32;29.87;;;23.30;;
15271;SDS011;7737;51.578;7.268;2024-03-08T05:19:59;29.83;;;24.33;;
15271;SDS011;7737;51.578;7.268;2024-03-08T05:22:25;28.20;;;23.73;;
15271;SDS011;7737;51.578;7.268;2024-03-08T05:24:52;33.67;;;23.80;;
15271;SDS011;7737;51.578;7.268;2024-03-08T05:27:19;30.43;;;23.97;;
15271;SDS011;7737;51.578;7.268;2024-03-08T05:29:47;29.23;;;23.40;;
15271;SDS011;7737;51.578;7.268;2024-03-08T05:32:13;28.80;;;23.73;;
15271;SDS011;7737;51.578;7.268;2024-03-08T05:34:40;32.03;;;24.23;;
15271;SDS011;7737;51.578;7.268;2024-03-08T05:37:06;34.97;;;25.70;;
15271;SDS011;7737;51.578;7.268;2024-03-08T05:39:33;33.43;;;25.80;;
15271;SDS011;7737;51.578;7.268;2024-03-08T05:41:59;29.70;;;23.70;;
15271;SDS011;7737;51.578;7.268;2024-03-08T05:44:26;29.63;;;24.33;;
15271;SDS011;7737;51.578;7.268;2024-03-08T05:46:55;30.00;;;23.23;;
15271;SDS011;7737;51.578;7.268;2024-03-08T05:49:21;31.70;;;25.07;;
15271;SDS011;7737;51.578;7.268;2024-03-08T05:51:50;36.20;;;27.97;;
15271;SDS011;7737;51.578;7.268;2024-03-08T05:54:16;30.67;;;25.47;;
15271;SDS011;7737;51.578;7.268;2024-03-08T05:56:43;30.53;;;24.03;;
15271;SDS011;7737;51.578;7.268;2024-03-08T05:59:09;31.70;;;24.67;;
15271;SDS011;7737;51.578;7.268;2024-03-08T06:01:36;32.20;;;24.60;;
15271;SDS011;7737;51.578;7.268;2024-03-08T06:04:04;32.27;;;24.97;;
15271;SDS011;7737;51.578;7.268;2024-03-08T06:06:31;35.40;;;25.43;;
15271;SDS011;7737;51.578;7.268;2024-03-08T06:08:57;31.80;;;24.73;;
15271;SDS011;7737;51.578;7.268;2024-03-08T06:11:25;32.20;;;25.37;;
15271;SDS011;7737;51.578;7.268;2024-03-08T06:13:53;30.00;;;24.37;;
15271;SDS011;7737;51.578;7.268;2024-03-08T06:16:24;32.00;;;24.23;;
15271;SDS011;7737;51.578;7.268;2024-03-08T06:18:54;29.73;;;24.87;;
15271;SDS011;7737;51.578;7.268;2024-03-08T06:21:22;31.07;;;24.30;;
15271;SDS011;7737;51.578;7.268;2024-03-08T06:23:51;34.83;;;25.10;;
15271;SDS011;7737;51.578;7.268;2024-03-08T06:26:19;32.03;;;25.57;;
15271;SDS011;7737;51.578;7.268;2024-03-08T06:28:47;30.20;;;24.10;;
15271;SDS011;7737;51.578;7.268;2024-03-08T06:31:13;31.77;;;25.07;;
15271;SDS011;7737;51.578;7.268;2024-03-08T06:33:40;33.93;;;25.97;;
15271;SDS011;7737;51.578;7.268;2024-03-08T06:36:08;32.83;;;24.73;;
15271;SDS011;7737;51.578;7.268;2024-03-08T06:38:38;31.73;;;25.70;;
15271;SDS011;7737;51.578;7.268;2024-03-08T06:41:07;33.13;;;24.97;;
15271;SDS011;7737;51.578;7.268;2024-03-08T06:43:34;36.43;;;25.33;;
15271;SDS011;7737;51.578;7.268;2024-03-08T06:46:00;33.17;;;25.73;;
15271;SDS011;7737;51.578;7.268;2024-03-08T06:48:28;33.27;;;25.97;;
15271;SDS011;7737;51.578;7.268;2024-03-08T06:50:55;34.03;;;26.33;;
15271;SDS011;7737;51.578;7.268;2024-03-08T06:53:22;34.63;;;25.97;;
15271;SDS011;7737;51.578;7.268;2024-03-08T06:55:51;37.50;;;26.33;;
15271;SDS011;7737;51.578;7.268;2024-03-08T06:58:17;36.30;;;26.40;;
15271;SDS011;7737;51.578;7.268;2024-03-08T07:00:44;37.37;;;26.17;;
15271;SDS011;7737;51.578;7.268;2024-03-08T07:03:11;34.23;;;25.57;;
15271;SDS011;7737;51.578;7.268;2024-03-08T07:05:42;33.47;;;25.57;;
15271;SDS011;7737;51.578;7.268;2024-03-08T07:08:08;39.37;;;27.20;;
15271;SDS011;7737;51.578;7.268;2024-03-08T07:10:35;34.70;;;26.20;;
15271;SDS011;7737;51.578;7.268;2024-03-08T07:13:04;35.80;;;26.10;;
15271;SDS011;7737;51.578;7.268;2024-03-08T07:15:30;32.07;;;25.00;;
15271;SDS011;7737;51.578;7.268;2024-03-08T07:17:57;34.70;;;26.07;;
15271;SDS011;7737;51.578;7.268;2024-03-08T07:20:24;33.03;;;25.63;;
15271;SDS011;7737;51.578;7.268;2024-03-08T07:22:51;30.53;;;24.47;;
15271;SDS011;7737;51.578;7.268;2024-03-08T07:25:18;36.17;;;25.77;;
15271;SDS011;7737;51.578;7.268;2024-03-08T07:27:49;35.40;;;25.83;;
15271;SDS011;7737;51.578;7.268;2024-03-08T07:30:19;32.90;;;25.30;;
15271;SDS011;7737;51.578;7.268;2024-03-08T07:33:03;32.30;;;25.90;;
15271;SDS011;7737;51.578;7.268;2024-03-08T07:35:32;32.40;;;25.07;;
15271;SDS011;7737;51.578;7.268;2024-03-08T07:37:58;32.07;;;24.33;;
15271;SDS011;7737;51.578;7.268;2024-03-08T07:40:25;29.93;;;23.53;;
15271;SDS011;7737;51.578;7.268;2024-03-08T07:42:52;31.40;;;25.73;;
15271;SDS011;7737;51.578;7.268;2024-03-08T07:45:20;33.57;;;25.47;;
15271;SDS011;7737;51.578;7.268;2024-03-08T07:47:47;31.70;;;24.80;;
15271;SDS011;7737;51.578;7.268;2024-03-08T07:50:14;29.40;;;24.83;;
15271;SDS011;7737;51.578;7.268;2024-03-08T07:52:41;28.57;;;23.97;;
15271;SDS011;7737;51.578;7.268;2024-03-08T07:55:08;32.20;;;24.80;;
15271;SDS011;7737;51.578;7.268;2024-03-08T07:57:36;30.07;;;24.40;;
15271;SDS011;7737;51.578;7.268;2024-03-08T08:00:04;30.30;;;24.53;;
15271;SDS011;7737;51.578;7.268;2024-03-08T08:02:35;30.30;;;22.97;;
15271;SDS011;7737;51.578;7.268;2024-03-08T08:05:01;33.03;;;24.67;;
15271;SDS011;7737;51.578;7.268;2024-03-08T08:07:29;29.60;;;22.73;;
15271;SDS011;7737;51.578;7.268;2024-03-08T08:09:55;29.50;;;24.33;;
15271;SDS011;7737;51.578;7.268;2024-03-08T08:12:22;32.27;;;23.47;;
15271;SDS011;7737;51.578;7.268;2024-03-08T08:14:48;32.70;;;24.47;;
15271;SDS011;7737;51.578;7.268;2024-03-08T08:17:15;26.63;;;22.57;;
15271;SDS011;7737;51.578;7.268;2024-03-08T08:19:43;29.47;;;23.50;;
15271;SDS011;7737;51.578;7.268;2024-03-08T08:22:10;30.57;;;23.07;;
15271;SDS011;7737;51.578;7.268;2024-03-08T08:24:36;29.43;;;22.93;;
15271;SDS011;7737;51.578;7.268;2024-03-08T08:27:03;28.40;;;23.47;;
15271;SDS011;7737;51.578;7.268;2024-03-08T08:29:29;26.73;;;21.87;;
15271;SDS011;7737;51.578;7.268;2024-03-08T08:31:58;28.17;;;22.87;;
15271;SDS011;7737;51.578;7.268;2024-03-08T08:34:24;25.57;;;22.00;;
15271;SDS011;7737;51.578;7.268;2024-03-08T08:36:52;28.93;;;22.60;;
15271;SDS011;7737;51.578;7.268;2024-03-08T08:39:19;30.97;;;23.40;;
15271;SDS011;7737;51.578;7.268;2024-03-08T08:41:47;26.60;;;22.33;;
15271;SDS011;7737;51.578;7.268;2024-03-08T08:44:14;32.30;;;23.17;;
15271;SDS011;7737;51.578;7.268;2024-03-08T08:46:40;26.60;;;22.87;;
15271;SDS011;7737;51.578;7.268;2024-03-08T08:49:07;27.93;;;23.40;;
15271;SDS011;7737;51.578;7.268;2024-03-08T08:51:35;27.30;;;22.67;;
15271;SDS011;7737;51.578;7.268;2024-03-08T08:54:03;27.50;;;23.17;;
15271;SDS011;7737;51.578;7.268;2024-03-08T08:56:32;31.47;;;23.40;;
15271;SDS011;7737;51.578;7.268;2024-03-08T08:58:59;26.80;;;22.60;;
15271;SDS011;7737;51.578;7.268;2024-03-08T09:01:25;25.83;;;22.07;;
15271;SDS011;7737;51.578;7.268;2024-03-08T09:03:52;29.63;;;23.83;;
15271;SDS011;7737;51.578;7.268;2024-03-08T09:06:19;25.77;;;22.17;;
15271;SDS011;7737;51.578;7.268;2024-03-08T09:08:45;27.10;;;22.35;;
15271;SDS011;7737;51.578;7.268;2024-03-08T09:11:13;28.77;;;22.52;;
15271;SDS011;7737;51.578;7.268;2024-03-08T09:13:40;26.65;;;22.98;;
15271;SDS011;7737;51.578;7.268;2024-03-08T09:16:06;29.55;;;22.92;;
15271;SDS011;7737;51.578;7.268;2024-03-08T09:18:35;28.40;;;23.35;;
15271;SDS011;7737;51.578;7.268;2024-03-08T09:21:02;28.83;;;23.60;;
15271;SDS011;7737;51.578;7.268;2024-03-08T09:23:30;25.35;;;21.48;;
15271;SDS011;7737;51.578;7.268;2024-03-08T09:25:56;24.30;;;21.70;;
15271;SDS011;7737;51.578;7.268;2024-03-08T09:28:24;25.27;;;21.50;;
15271;SDS011;7737;51.578;7.268;2024-03-08T09:30:52;26.93;;;20.67;;
15271;SDS011;7737;51.578;7.268;2024-03-08T09:33:19;23.05;;;20.55;;
15271;SDS011;7737;51.578;7.268;2024-03-08T09:35:47;23.15;;;20.15;;
15271;SDS011;7737;51.578;7.268;2024-03-08T09:38:13;25.15;;;19.45;;
15271;SDS011;7737;51.578;7.268;2024-03-08T09:40:40;23.92;;;20.48;;
15271;SDS011;7737;51.578;7.268;2024-03-08T09:43:07;25.27;;;20.00;;
15271;SDS011;7737;51.578;7.268;2024-03-08T09:45:36;25.33;;;20.63;;
15271;SDS011;7737;51.578;7.268;2024-03-08T09:48:04;24.77;;;21.13;;
15271;SDS011;7737;51.578;7.268;2024-03-08T09:50:33;26.63;;;21.52;;
15271;SDS011;7737;51.578;7.268;2024-03-08T09:53:00;24.13;;;20.98;;
15271;SDS011;7737;51.578;7.268;2024-03-08T09:55:28;33.92;;;23.17;;
15271;SDS011;7737;51.578;7.268;2024-03-08T09:57:59;32.53;;;22.15;;
15271;SDS011;7737;51.578;7.268;2024-03-08T10:00:54;27.67;;;21.33;;
15271;SDS011;7737;51.578;7.268;2024-03-08T10:03:22;32.38;;;23.02;;
15271;SDS011;7737;51.578;7.268;2024-03-08T10:05:51;28.88;;;21.08;;
15271;SDS011;7737;51.578;7.268;2024-03-08T10:08:18;26.33;;;20.42;;
15271;SDS011;7737;51.578;7.268;2024-03-08T10:10:45;23.45;;;19.70;;
15271;SDS011;7737;51.578;7.268;2024-03-08T10:13:12;26.85;;;19.77;;
15271;SDS011;7737;51.578;7.268;2024-03-08T10:15:41;22.08;;;18.08;;
15271;SDS011;7737;51.578;7.268;2024-03-08T10:18:10;21.38;;;19.02;;
15271;SDS011;7737;51.578;7.268;2024-03-08T10:20:36;24.20;;;20.00;;
15271;SDS011;7737;51.578;7.268;2024-03-08T10:23:04;23.67;;;20.15;;
15271;SDS011;7737;51.578;7.268;2024-03-08T10:25:31;22.98;;;19.55;;
15271;SDS011;7737;51.578;7.268;2024-03-08T10:27:58;22.50;;;20.00;;
15271;SDS011;7737;51.578;7.268;2024-03-08T10:30:24;27.35;;;20.45;;
15271;SDS011;7737;51.578;7.268;2024-03-08T10:32:51;25.48;;;20.15;;
15271;SDS011;7737;51.578;7.268;2024-03-08T10:35:19;21.45;;;18.67;;
15271;SDS011;7737;51.578;7.268;2024-03-08T10:37:46;25.20;;;20.95;;
15271;SDS011;7737;51.578;7.268;2024-03-08T10:40:15;24.45;;;20.15;;
15271;SDS011;7737;51.578;7.268;2024-03-08T10:42:47;25.17;;;20.58;;
15271;SDS011;7737;51.578;7.268;2024-03-08T10:45:21;22.52;;;20.13;;
15271;SDS011;7737;51.578;7.268;2024-03-08T10:48:09;22.08;;;19.35;;
15271;SDS011;7737;51.578;7.268;2024-03-08T10:50:48;22.52;;;20.13;;
15271;SDS011;7737;51.578;7.268;2024-03-08T10:53:15;24.75;;;19.27;;
15271;SDS011;7737;51.578;7.268;2024-03-08T10:55:46;23.88;;;20.17;;
15271;SDS011;7737;51.578;7.268;2024-03-08T10:58:13;23.98;;;19.10;;
15271;SDS011;7737;51.578;7.268;2024-03-08T11:00:40;23.42;;;20.98;;
15271;SDS011;7737;51.578;7.268;2024-03-08T11:03:07;22.77;;;19.50;;
15271;SDS011;7737;51.578;7.268;2024-03-08T11:05:55;21.58;;;19.27;;
15271;SDS011;7737;51.578;7.268;2024-03-08T11:08:22;22.80;;;20.15;;
15271;SDS011;7737;51.578;7.268;2024-03-08T11:10:49;22.02;;;19.73;;
15271;SDS011;7737;51.578;7.268;2024-03-08T11:13:33;25.10;;;20.52;;
15271;SDS011;7737;51.578;7.268;2024-03-08T11:16:00;20.42;;;18.23;;
15271;SDS011;7737;51.578;7.268;2024-03-08T11:18:32;23.17;;;20.48;;
15271;SDS011;7737;51.578;7.268;2024-03-08T11:21:03;23.00;;;18.98;;
15271;SDS011;7737;51.578;7.268;2024-03-08T11:23:31;24.02;;;20.00;;
15271;SDS011;7737;51.578;7.268;2024-03-08T11:25:58;22.70;;;19.20;;
15271;SDS011;7737;51.578;7.268;2024-03-08T11:28:25;21.75;;;19.42;;
15271;SDS011;7737;51.578;7.268;2024-03-08T11:33:49;22.17;;;19.60;;
15271;SDS011;7737;51.578;7.268;2024-03-08T11:36:20;23.08;;;19.80;;
15271;SDS011;7737;51.578;7.268;2024-03-08T11:38:49;22.00;;;18.70;;
15271;SDS011;7737;51.578;7.268;2024-03-08T11:41:18;23.63;;;19.63;;
15271;SDS011;7737;51.578;7.268;2024-03-08T11:43:45;22.05;;;18.60;;
15271;SDS011;7737;51.578;7.268;2024-03-08T11:46:12;20.83;;;18.33;;
15271;SDS011;7737;51.578;7.268;2024-03-08T11:48:39;21.15;;;18.95;;
15271;SDS011;7737;51.578;7.268;2024-03-08T11:51:06;19.98;;;17.85;;
15271;SDS011;7737;51.578;7.268;2024-03-08T11:53:35;22.83;;;19.13;;
15271;SDS011;7737;51.578;7.268;2024-03-08T11:56:05;20.67;;;18.45;;
15271;SDS011;7737;51.578;7.268;2024-03-08T11:58:35;20.25;;;18.20;;
15271;SDS011;7737;51.578;7.268;2024-03-08T12:01:02;18.75;;;16.73;;
15271;SDS011;7737;51.578;7.268;2024-03-08T12:03:30;18.92;;;16.92;;
15271;SDS011;7737;51.578;7.268;2024-03-08T12:05:59;19.15;;;16.90;;
15271;SDS011;7737;51.578;7.268;2024-03-08T12:08:26;18.65;;;16.73;;
15271;SDS011;7737;51.578;7.268;2024-03-08T12:10:56;19.73;;;17.73;;
15271;SDS011;7737;51.578;7.268;2024-03-08T12:13:25;28.13;;;17.80;;
15271;SDS011;7737;51.578;7.268;2024-03-08T12:15:54;18.73;;;16.83;;
15271;SDS011;7737;51.578;7.268;2024-03-08T12:18:21;17.80;;;15.75;;
15271;SDS011;7737;51.578;7.268;2024-03-08T12:20:48;19.08;;;16.98;;
15271;SDS011;7737;51.578;7.268;2024-03-08T12:23:15;19.33;;;16.42;;
15271;SDS011;7737;51.578;7.268;2024-03-08T12:25:41;16.95;;;15.10;;
15271;SDS011;7737;51.578;7.268;2024-03-08T12:28:10;17.02;;;15.32;;
15271;SDS011;7737;51.578;7.268;2024-03-08T12:30:44;16.55;;;14.85;;
15271;SDS011;7737;51.578;7.268;2024-03-08T12:33:12;16.25;;;14.57;;
15271;SDS011;7737;51.578;7.268;2024-03-08T12:35:39;17.17;;;14.30;;
15271;SDS011;7737;51.578;7.268;2024-03-08T12:38:07;16.58;;;13.95;;
15271;SDS011;7737;51.578;7.268;2024-03-08T12:40:33;15.65;;;13.43;;
15271;SDS011;7737;51.578;7.268;2024-03-08T12:43:05;13.02;;;11.30;;
15271;SDS011;7737;51.578;7.268;2024-03-08T12:45:33;12.05;;;10.55;;
15271;SDS011;7737;51.578;7.268;2024-03-08T12:48:00;11.98;;;10.60;;
15271;SDS011;7737;51.578;7.268;2024-03-08T12:50:28;11.18;;;10.07;;
15271;SDS011;7737;51.578;7.268;2024-03-08T12:52:55;10.88;;;9.77;;
15271;SDS011;7737;51.578;7.268;2024-03-08T12:55:22;13.02;;;9.77;;
15271;SDS011;7737;51.578;7.268;2024-03-08T12:57:48;11.18;;;10.07;;
15271;SDS011;7737;51.578;7.268;2024-03-08T13:00:18;11.25;;;9.68;;
15271;SDS011;7737;51.578;7.268;2024-03-08T13:02:46;11.20;;;9.90;;
15271;SDS011;7737;51.578;7.268;2024-03-08T13:05:13;14.13;;;11.80;;
15271;SDS011;7737;51.578;7.268;2024-03-08T13:07:40;13.80;;;12.30;;
15271;SDS011;7737;51.578;7.268;2024-03-08T13:10:11;14.57;;;12.23;;
15271;SDS011;7737;51.578;7.268;2024-03-08T13:12:39;15.15;;;11.73;;
15271;SDS011;7737;51.578;7.268;2024-03-08T13:15:07;13.60;;;11.90;;
15271;SDS011;7737;51.578;7.268;2024-03-08T13:17:36;13.10;;;11.50;;
15271;SDS011;7737;51.578;7.268;2024-03-08T13:20:07;13.52;;;12.13;;
15271;SDS011;7737;51.578;7.268;2024-03-08T13:22:40;13.65;;;12.30;;
15271;SDS011;7737;51.578;7.268;2024-03-08T13:25:07;18.45;;;15.15;;
15271;SDS011;7737;51.578;7.268;2024-03-08T13:27:38;12.57;;;11.25;;
15271;SDS011;7737;51.578;7.268;2024-03-08T13:30:06;12.80;;;11.45;;
15271;SDS011;7737;51.578;7.268;2024-03-08T13:32:37;13.43;;;11.88;;
15271;SDS011;7737;51.578;7.268;2024-03-08T13:35:04;13.20;;;11.30;;
15271;SDS011;7737;51.578;7.268;2024-03-08T13:37:37;12.80;;;11.23;;
15271;SDS011;7737;51.578;7.268;2024-03-08T13:40:05;14.18;;;12.75;;
15271;SDS011;7737;51.578;7.268;2024-03-08T13:42:36;13.98;;;12.35;;
15271;SDS011;7737;51.578;7.268;2024-03-08T13:45:03;15.02;;;12.85;;
15271;SDS011;7737;51.578;7.268;2024-03-08T13:47:32;12.88;;;11.18;;
15271;SDS011;7737;51.578;7.268;2024-03-08T13:49:59;14.10;;;12.60;;
15271;SDS011;7737;51.578;7.268;2024-03-08T13:52:27;13.27;;;11.90;;
15271;SDS011;7737;51.578;7.268;2024-03-08T13:54:54;13.57;;;12.27;;
15271;SDS011;7737;51.578;7.268;2024-03-08T13:57:20;13.35;;;12.00;;
15271;SDS011;7737;51.578;7.268;2024-03-08T13:59:47;19.55;;;13.23;;
15271;SDS011;7737;51.578;7.268;2024-03-08T14:02:16;13.52;;;12.23;;
15271;SDS011;7737;51.578;7.268;2024-03-08T14:04:43;14.63;;;12.30;;
15271;SDS011;7737;51.578;7.268;2024-03-08T14:07:09;14.18;;;12.77;;
15271;SDS011;7737;51.578;7.268;2024-03-08T14:09:37;14.35;;;12.85;;
15271;SDS011;7737;51.578;7.268;2024-03-08T14:12:07;14.30;;;12.80;;
15271;SDS011;7737;51.578;7.268;2024-03-08T14:14:34;15.15;;;13.65;;
15271;SDS011;7737;51.578;7.268;2024-03-08T14:17:01;14.43;;;12.93;;
15271;SDS011;7737;51.578;7.268;2024-03-08T14:19:29;14.70;;;13.10;;
15271;SDS011;7737;51.578;7.268;2024-03-08T14:21:56;16.77;;;13.13;;
15271;SDS011;7737;51.578;7.268;2024-03-08T14:24:24;15.30;;;13.45;;
15271;SDS011;7737;51.578;7.268;2024-03-08T14:26:52;15.57;;;13.98;;
15271;SDS011;7737;51.578;7.268;2024-03-08T14:29:18;15.52;;;13.93;;
15271;SDS011;7737;51.578;7.268;2024-03-08T14:31:45;15.27;;;13.77;;
15271;SDS011;7737;51.578;7.268;2024-03-08T14:34:11;16.13;;;14.43;;
15271;SDS011;7737;51.578;7.268;2024-03-08T14:36:39;16.77;;;14.73;;
15271;SDS011;7737;51.578;7.268;2024-03-08T14:39:06;17.23;;;15.27;;
15271;SDS011;7737;51.578;7.268;2024-03-08T14:41:33;17.70;;;15.90;;